createdAt,value
2018-09-25T00:01:35.498Z,4.20
2018-09-25T00:04:10.050Z,3.60
2018-09-25T00:09:23.584Z,2.90
2018-09-25T00:11:57.944Z,3.80
2018-09-25T00:14:32.777Z,2.67
2018-09-25T00:17:09.411Z,3.20
2018-09-25T00:19:43.996Z,3.30
2018-09-25T00:22:18.356Z,3.30
2018-09-25T00:24:53.849Z,3.67
2018-09-25T00:27:28.174Z,3.60
2018-09-25T00:30:02.326Z,4.30
2018-09-25T00:32:36.690Z,4.40
2018-09-25T00:35:13.699Z,4.10
2018-09-25T00:37:49.834Z,4.37
2018-09-25T00:40:24.026Z,4.90
2018-09-25T00:42:59.061Z,4.80
2018-09-25T00:45:33.394Z,4.47
2018-09-25T00:50:55.165Z,4.40
2018-09-25T00:53:29.427Z,5.87
2018-09-25T00:56:03.958Z,6.00
2018-09-25T00:58:38.230Z,6.37
2018-09-25T01:01:12.463Z,6.13
2018-09-25T01:03:49.146Z,6.53
2018-09-25T01:06:23.464Z,6.43
2018-09-25T01:08:57.650Z,8.03
2018-09-25T01:11:31.979Z,7.73
2018-09-25T01:14:06.724Z,7.93
2018-09-25T01:16:40.874Z,7.27
2018-09-25T01:19:15.111Z,8.17
2018-09-25T01:21:50.017Z,6.90
2018-09-25T01:24:24.230Z,5.63
2018-09-25T01:26:58.437Z,8.07
2018-09-25T01:29:35.130Z,6.60
2018-09-25T01:32:09.448Z,7.17
2018-09-25T01:34:43.688Z,6.43
2018-09-25T01:37:18.083Z,6.67
2018-09-25T01:39:54.739Z,6.00
2018-09-25T01:42:29.106Z,6.70
2018-09-25T01:45:03.400Z,7.03
2018-09-25T01:47:38.849Z,6.60
2018-09-25T01:50:13.092Z,6.80
2018-09-25T01:52:49.148Z,7.23
2018-09-25T01:55:23.420Z,6.80
2018-09-25T01:57:58.195Z,7.37
2018-09-25T02:00:33.079Z,5.93
2018-09-25T02:03:07.290Z,6.30
2018-09-25T02:05:48.943Z,5.90
2018-09-25T02:08:23.375Z,6.37
2018-09-25T02:10:57.590Z,5.40
2018-09-25T02:13:31.931Z,5.80
2018-09-25T02:16:07.555Z,6.40
2018-09-25T02:18:41.852Z,6.30
2018-09-25T02:21:16.110Z,7.03
2018-09-25T02:23:52.810Z,6.70
2018-09-25T02:26:27.108Z,7.10
2018-09-25T02:29:01.494Z,5.37
2018-09-25T02:31:35.835Z,5.33
2018-09-25T02:34:12.597Z,4.43
2018-09-25T02:36:46.918Z,5.50
2018-09-25T02:39:21.601Z,4.93
2018-09-25T02:41:57.268Z,5.20
2018-09-25T02:44:31.589Z,6.03
2018-09-25T02:47:06.845Z,4.60
2018-09-25T02:49:41.349Z,4.70
2018-09-25T02:52:16.059Z,4.90
2018-09-25T02:54:50.653Z,4.37
2018-09-25T02:57:24.924Z,5.07
2018-09-25T03:00:00.475Z,5.53
2018-09-25T03:02:34.665Z,6.27
2018-09-25T03:05:08.889Z,4.33
2018-09-25T03:07:43.190Z,4.13
2018-09-25T03:10:19.150Z,3.43
2018-09-25T03:12:53.430Z,4.60
2018-09-25T03:15:28.465Z,4.17
2018-09-25T03:18:03.209Z,3.73
2018-09-25T03:20:37.654Z,4.30
2018-09-25T03:23:11.999Z,3.87
2018-09-25T03:25:46.268Z,3.80
2018-09-25T03:28:21.969Z,3.90
2018-09-25T03:30:56.314Z,4.07
2018-09-25T03:33:30.382Z,3.87
2018-09-25T03:36:04.454Z,3.70
2018-09-25T03:38:40.090Z,4.27
2018-09-25T03:41:14.513Z,5.23
2018-09-25T03:43:48.748Z,7.10
2018-09-25T03:46:23.348Z,8.33
2018-09-25T03:48:57.604Z,7.07
2018-09-25T03:51:32.237Z,7.67
2018-09-25T03:54:07.898Z,6.73
2018-09-25T03:56:43.023Z,5.70
2018-09-25T03:59:17.387Z,5.13
2018-09-25T04:01:52.045Z,5.87
2018-09-25T04:04:27.536Z,6.63
2018-09-25T04:07:02.409Z,7.17
2018-09-25T04:09:36.623Z,7.60
2018-09-25T04:12:12.949Z,6.93
2018-09-25T04:14:47.237Z,6.03
2018-09-25T04:17:21.447Z,5.87
2018-09-25T04:19:55.577Z,5.63
2018-09-25T04:22:30.698Z,5.83
2018-09-25T04:25:04.944Z,5.23
2018-09-25T04:27:40.169Z,5.10
2018-09-25T04:30:14.450Z,4.03
2018-09-25T04:32:49.772Z,3.70
2018-09-25T04:35:25.005Z,3.50
2018-09-25T04:37:59.204Z,4.10
2018-09-25T04:40:33.555Z,3.13
2018-09-25T04:43:10.342Z,3.60
2018-09-25T04:45:45.073Z,3.60
2018-09-25T04:48:19.253Z,3.50
2018-09-25T04:50:53.605Z,4.00
2018-09-25T04:53:30.162Z,3.60
2018-09-25T04:56:04.499Z,4.87
2018-09-25T04:58:38.904Z,5.50
2018-09-25T05:01:13.213Z,4.93
2018-09-25T05:03:48.059Z,4.50
2018-09-25T05:06:22.212Z,5.13
2018-09-25T05:08:56.493Z,5.30
2018-09-25T05:11:30.828Z,5.93
2018-09-25T05:14:05.518Z,7.37
2018-09-25T05:16:39.712Z,8.40
2018-09-25T05:19:13.893Z,7.20
2018-09-25T05:21:48.529Z,7.93
2018-09-25T05:24:26.597Z,8.20
2018-09-25T05:27:01.234Z,8.60
2018-09-25T05:29:35.481Z,8.40
2018-09-25T05:32:09.959Z,9.07
2018-09-25T05:34:44.126Z,8.17
2018-09-25T05:37:21.872Z,7.07
2018-09-25T05:39:57.427Z,6.53
2018-09-25T05:42:31.722Z,6.33
2018-09-25T05:45:07.061Z,7.33
2018-09-25T05:47:43.708Z,6.43
2018-09-25T05:50:18.579Z,6.53
2018-09-25T05:52:52.803Z,6.27
2018-09-25T05:55:29.604Z,6.10
2018-09-25T05:58:04.014Z,5.50
2018-09-25T06:00:38.532Z,6.00
2018-09-25T06:03:12.952Z,5.60
2018-09-25T06:08:26.507Z,5.30
2018-09-25T06:11:00.963Z,6.80
2018-09-25T06:13:35.810Z,11.03
2018-09-25T06:16:11.615Z,8.63
2018-09-25T06:18:46.911Z,6.77
2018-09-25T06:21:21.379Z,6.00
2018-09-25T06:23:57.995Z,6.00
2018-09-25T06:26:32.737Z,6.00
2018-09-25T06:29:07.100Z,5.20
2018-09-25T06:31:41.510Z,5.60
2018-09-25T06:36:55.760Z,5.97
2018-09-25T06:39:30.139Z,7.13
2018-09-25T06:42:05.328Z,6.60
2018-09-25T06:44:40.238Z,6.03
2018-09-25T06:47:14.590Z,5.93
2018-09-25T06:49:48.910Z,5.90
2018-09-25T06:52:24.519Z,6.60
2018-09-25T06:55:00.309Z,6.80
2018-09-25T06:57:34.632Z,6.40
2018-09-25T07:00:10.293Z,7.47
2018-09-25T07:02:46.029Z,7.60
2018-09-25T07:05:20.354Z,7.87
2018-09-25T07:07:56.234Z,8.43
2018-09-25T07:10:31.089Z,7.87
2018-09-25T07:13:09.750Z,8.17
2018-09-25T07:15:46.371Z,8.20
2018-09-25T07:18:21.347Z,8.37
2018-09-25T07:20:55.692Z,9.53
2018-09-25T07:23:31.318Z,7.93
2018-09-25T07:26:06.278Z,8.30
2018-09-25T07:28:40.461Z,8.87
2018-09-25T07:31:14.762Z,10.13
2018-09-25T07:33:51.141Z,10.67
2018-09-25T07:36:26.224Z,12.63
2018-09-25T07:39:00.933Z,12.00
2018-09-25T07:41:39.217Z,13.73
2018-09-25T07:44:14.284Z,14.00
2018-09-25T07:46:48.566Z,13.80
2018-09-25T07:49:23.649Z,12.73
2018-09-25T07:51:59.172Z,14.43
2018-09-25T07:54:33.317Z,14.17
2018-09-25T07:57:10.665Z,13.57
2018-09-25T07:59:45.794Z,12.00
2018-09-25T08:02:20.101Z,12.67
2018-09-25T08:04:55.831Z,12.23
2018-09-25T08:07:31.997Z,10.80
2018-09-25T08:10:07.221Z,11.13
2018-09-25T08:12:41.988Z,13.03
2018-09-25T08:15:16.918Z,12.33
2018-09-25T08:17:51.210Z,11.33
2018-09-25T08:20:25.816Z,12.50
2018-09-25T08:23:00.057Z,14.37
2018-09-25T08:25:35.181Z,14.63
2018-09-25T08:28:09.383Z,15.20
2018-09-25T08:30:47.134Z,14.47
2018-09-25T08:33:22.940Z,15.70
2018-09-25T08:35:57.328Z,14.87
2018-09-25T08:38:32.135Z,15.93
2018-09-25T08:41:07.607Z,12.87
2018-09-25T08:43:44.186Z,13.17
2018-09-25T08:46:19.647Z,13.27
2018-09-25T08:48:54.863Z,13.33
2018-09-25T08:51:29.752Z,11.43
2018-09-25T08:54:05.608Z,14.47
2018-09-25T08:56:39.871Z,15.40
2018-09-25T08:59:14.151Z,13.67
2018-09-25T09:01:49.379Z,12.07
2018-09-25T09:04:23.657Z,10.70
2018-09-25T09:06:59.652Z,10.10
2018-09-25T09:09:34.860Z,15.23
2018-09-25T09:12:09.862Z,10.27
2018-09-25T09:14:44.022Z,9.03
2018-09-25T09:17:18.607Z,7.13
2018-09-25T09:19:52.869Z,6.57
2018-09-25T09:22:27.581Z,2.60
2018-09-25T09:25:02.167Z,2.60
2018-09-25T09:27:38.983Z,2.20
2018-09-25T09:30:28.222Z,1.77
2018-09-25T09:33:02.443Z,2.17
2018-09-25T09:35:36.567Z,1.23
2018-09-25T09:38:13.119Z,1.30
2018-09-25T09:40:50.355Z,1.67
2018-09-25T09:43:27.256Z,1.20
2018-09-25T09:46:02.962Z,5.60
2018-09-25T09:48:38.466Z,1.70
2018-09-25T09:51:12.733Z,1.83
2018-09-25T09:53:48.426Z,3.27
2018-09-25T09:56:22.750Z,1.60
2018-09-25T09:58:57.674Z,2.23
2018-09-25T10:01:33.265Z,1.70
2018-09-25T10:04:08.306Z,2.00
2018-09-25T10:06:42.729Z,1.70
2018-09-25T10:09:17.691Z,1.67
2018-09-25T10:11:54.198Z,2.07
2018-09-25T10:14:28.541Z,1.70
2018-09-25T10:17:04.411Z,1.50
2018-09-25T10:19:39.707Z,1.53
2018-09-25T10:22:15.450Z,1.40
2018-09-25T10:24:51.419Z,1.37
2018-09-25T10:27:25.811Z,1.70
2018-09-25T10:30:03.285Z,1.77
2018-09-25T10:32:39.407Z,1.90
2018-09-25T10:35:14.256Z,2.60
2018-09-25T10:37:49.153Z,1.70
2018-09-25T10:43:09.593Z,1.50
2018-09-25T10:45:44.681Z,1.10
2018-09-25T10:48:22.109Z,0.80
2018-09-25T10:50:57.072Z,0.90
2018-09-25T10:53:32.856Z,1.00
2018-09-25T10:56:10.054Z,1.17
2018-09-25T10:58:46.489Z,1.20
2018-09-25T11:01:23.141Z,0.60
2018-09-25T11:03:57.998Z,0.67
2018-09-25T11:06:32.789Z,1.37
2018-09-25T11:09:10.657Z,0.60
2018-09-25T11:11:45.231Z,0.60
2018-09-25T11:14:21.189Z,1.13
2018-09-25T11:16:55.652Z,0.30
2018-09-25T11:19:33.008Z,0.63
2018-09-25T11:22:07.259Z,0.60
2018-09-25T11:24:41.493Z,0.40
2018-09-25T11:27:15.817Z,0.40
2018-09-25T11:29:51.067Z,0.80
2018-09-25T11:32:28.051Z,0.60
2018-09-25T11:35:05.511Z,0.60
2018-09-25T11:37:40.891Z,3.37
2018-09-25T11:40:16.905Z,1.80
2018-09-25T11:42:51.787Z,0.80
2018-09-25T11:45:26.619Z,1.03
2018-09-25T11:48:04.602Z,1.37
2018-09-25T11:50:40.878Z,1.20
2018-09-25T11:53:15.292Z,1.37
2018-09-25T11:55:55.112Z,1.00
2018-09-25T11:58:31.422Z,1.30
2018-09-25T12:01:08.491Z,0.90
2018-09-25T12:03:43.686Z,0.80
2018-09-25T12:06:20.247Z,1.57
2018-09-25T12:08:54.811Z,0.90
2018-09-25T12:11:29.253Z,1.20
2018-09-25T12:14:04.031Z,0.90
2018-09-25T12:16:39.440Z,0.80
2018-09-25T12:19:13.966Z,0.83
2018-09-25T12:21:48.308Z,0.60
2018-09-25T12:24:23.257Z,0.93
2018-09-25T12:27:04.676Z,0.50
2018-09-25T12:29:39.107Z,1.17
2018-09-25T12:32:17.080Z,0.90
2018-09-25T12:34:51.431Z,0.80
2018-09-25T12:37:29.402Z,0.60
2018-09-25T12:40:05.401Z,1.17
2018-09-25T12:42:42.820Z,0.70
2018-09-25T12:45:16.956Z,1.10
2018-09-25T12:47:51.460Z,0.57
2018-09-25T12:50:26.979Z,0.90
2018-09-25T12:53:04.786Z,0.60
2018-09-25T12:55:38.996Z,0.80
2018-09-25T12:58:15.097Z,0.60
2018-09-25T13:00:50.422Z,0.47
2018-09-25T13:06:08.104Z,0.60
2018-09-25T13:08:43.228Z,1.03
2018-09-25T13:13:58.782Z,0.77
2018-09-25T13:16:33.447Z,1.10
2018-09-25T13:19:07.990Z,0.90
2018-09-25T13:21:44.367Z,0.70
2018-09-25T13:24:18.933Z,0.70
2018-09-25T13:26:54.068Z,0.97
2018-09-25T13:29:28.370Z,1.00
2018-09-25T13:34:45.874Z,0.83
2018-09-25T13:37:21.006Z,0.90
2018-09-25T13:39:56.856Z,1.10
2018-09-25T13:42:31.601Z,0.73
2018-09-25T13:45:06.575Z,0.70
2018-09-25T13:47:42.917Z,0.70
2018-09-25T13:50:18.046Z,0.63
2018-09-25T13:52:53.222Z,0.90
2018-09-25T13:55:28.357Z,0.90
2018-09-25T13:58:02.754Z,1.00
2018-09-25T14:00:37.593Z,0.70
2018-09-25T14:03:14.222Z,1.00
2018-09-25T14:05:48.553Z,1.07
2018-09-25T14:08:22.861Z,1.20
2018-09-25T14:11:04.369Z,1.10
2018-09-25T14:13:40.180Z,0.60
2018-09-25T14:16:16.077Z,0.90
2018-09-25T14:18:50.343Z,0.70
2018-09-25T14:21:26.907Z,0.90
2018-09-25T14:24:01.495Z,0.90
2018-09-25T14:26:35.706Z,1.17
2018-09-25T14:29:10.124Z,0.97
2018-09-25T14:31:44.868Z,1.10
2018-09-25T14:34:20.758Z,1.20
2018-09-25T14:36:56.768Z,1.23
2018-09-25T14:39:31.951Z,1.50
2018-09-25T14:42:07.749Z,1.07
2018-09-25T14:44:42.643Z,1.70
2018-09-25T14:47:17.143Z,1.80
2018-09-25T14:49:51.571Z,1.80
2018-09-25T14:52:27.356Z,1.30
2018-09-25T14:55:02.338Z,0.90
2018-09-25T14:57:38.507Z,0.97
2018-09-25T15:00:13.434Z,1.30
2018-09-25T15:02:50.360Z,1.20
2018-09-25T15:05:25.910Z,2.20
2018-09-25T15:08:06.844Z,1.70
2018-09-25T15:10:41.391Z,1.63
2018-09-25T15:13:21.326Z,1.90
2018-09-25T15:15:55.718Z,1.87
2018-09-25T15:18:31.567Z,1.80
2018-09-25T15:21:06.735Z,1.30
2018-09-25T15:23:45.623Z,2.10
2018-09-25T15:26:20.752Z,1.97
2018-09-25T15:28:55.737Z,2.10
2018-09-25T15:31:30.228Z,1.63
2018-09-25T15:34:08.331Z,1.60
2018-09-25T15:36:47.369Z,1.60
2018-09-25T15:39:25.771Z,1.90
2018-09-25T15:42:00.669Z,2.33
2018-09-25T15:44:36.706Z,2.07
2018-09-25T15:47:12.238Z,2.50
2018-09-25T15:49:47.816Z,2.53
2018-09-25T15:52:25.491Z,4.10
2018-09-25T15:55:00.211Z,3.90
2018-09-25T15:57:36.982Z,5.20
2018-09-25T16:00:13.333Z,4.67
2018-09-25T16:02:51.663Z,4.53
2018-09-25T16:05:27.044Z,3.60
2018-09-25T16:08:02.795Z,4.80
2018-09-25T16:10:38.011Z,6.47
2018-09-25T16:13:13.391Z,4.70
2018-09-25T16:15:47.825Z,3.00
2018-09-25T16:18:22.786Z,2.37
2018-09-25T16:20:57.244Z,2.67
2018-09-25T16:23:31.660Z,2.50
2018-09-25T16:26:06.431Z,2.70
2018-09-25T16:28:43.150Z,2.67
2018-09-25T16:31:17.553Z,2.10
2018-09-25T16:33:53.030Z,2.40
2018-09-25T16:36:29.726Z,2.10
2018-09-25T16:39:04.156Z,2.03
2018-09-25T16:41:42.119Z,2.03
2018-09-25T16:44:17.368Z,1.73
2018-09-25T16:46:53.696Z,1.70
2018-09-25T16:49:32.279Z,2.07
2018-09-25T16:52:07.208Z,1.97
2018-09-25T16:54:44.470Z,1.50
2018-09-25T16:57:19.584Z,2.00
2018-09-25T16:59:54.304Z,2.40
2018-09-25T17:02:31.135Z,2.30
2018-09-25T17:05:06.439Z,2.43
2018-09-25T17:07:44.399Z,2.00
2018-09-25T17:10:20.732Z,2.03
2018-09-25T17:12:56.706Z,1.87
2018-09-25T17:15:31.802Z,1.90
2018-09-25T17:18:06.695Z,1.80
2018-09-25T17:20:41.247Z,1.50
2018-09-25T17:23:16.655Z,1.80
2018-09-25T17:25:51.287Z,1.70
2018-09-25T17:28:26.783Z,2.03
2018-09-25T17:31:07.440Z,2.40
2018-09-25T17:33:43.007Z,2.50
2018-09-25T17:36:19.810Z,2.53
2018-09-25T17:38:58.602Z,2.17
2018-09-25T17:41:34.225Z,2.63
2018-09-25T17:44:10.074Z,3.10
2018-09-25T17:46:44.450Z,2.90
2018-09-25T17:49:20.684Z,3.13
2018-09-25T17:51:58.205Z,2.90
2018-09-25T17:54:34.262Z,3.70
2018-09-25T17:57:13.714Z,4.50
2018-09-25T17:59:48.650Z,4.10
2018-09-25T18:02:26.411Z,4.80
2018-09-25T18:05:01.819Z,3.63
2018-09-25T18:07:39.799Z,4.10
2018-09-25T18:10:15.716Z,5.30
2018-09-25T18:12:52.192Z,7.77
2018-09-25T18:15:28.357Z,6.67
2018-09-25T18:18:05.961Z,5.00
2018-09-25T18:20:40.802Z,5.63
2018-09-25T18:23:15.687Z,6.60
2018-09-25T18:29:14.545Z,6.30
2018-09-25T18:31:52.263Z,6.60
2018-09-25T18:34:26.607Z,6.50
2018-09-25T18:37:02.594Z,8.17
2018-09-25T18:39:42.009Z,7.37
2018-09-25T18:42:20.562Z,7.47
2018-09-25T18:44:57.768Z,7.53
2018-09-25T18:47:32.806Z,7.67
2018-09-25T18:50:08.468Z,7.37
2018-09-25T18:52:43.679Z,7.13
2018-09-25T18:55:18.019Z,7.37
2018-09-25T18:57:58.195Z,7.60
2018-09-25T19:00:33.315Z,6.37
2018-09-25T19:03:08.995Z,6.67
2018-09-25T19:05:44.450Z,6.50
2018-09-25T19:08:19.926Z,6.70
2018-09-25T19:10:54.269Z,5.90
2018-09-25T19:13:32.469Z,5.60
2018-09-25T19:16:09.225Z,5.40
2018-09-25T19:18:45.136Z,5.90
2018-09-25T19:21:21.727Z,4.93
2018-09-25T19:23:58.356Z,4.30
2018-09-25T19:26:34.503Z,4.23
2018-09-25T19:29:11.905Z,4.10
2018-09-25T19:31:46.314Z,3.73
2018-09-25T19:34:25.273Z,3.87
2018-09-25T19:36:59.796Z,3.50
2018-09-25T19:39:36.083Z,3.40
2018-09-25T19:42:10.302Z,3.00
2018-09-25T19:44:45.397Z,3.53
2018-09-25T19:47:20.997Z,4.40
2018-09-25T19:49:56.538Z,4.90
2018-09-25T19:52:32.009Z,5.43
2018-09-25T19:55:06.545Z,6.07
2018-09-25T19:57:41.461Z,6.77
2018-09-25T20:00:16.098Z,6.00
2018-09-25T20:02:50.363Z,6.77
2018-09-25T20:05:26.890Z,6.83
2018-09-25T20:08:01.774Z,8.17
2018-09-25T20:10:36.343Z,7.63
2018-09-25T20:13:11.676Z,8.53
2018-09-25T20:15:46.279Z,9.80
2018-09-25T20:18:26.221Z,10.77
2018-09-25T20:21:02.065Z,6.47
2018-09-25T20:23:36.404Z,5.80
2018-09-25T20:26:11.680Z,4.73
2018-09-25T20:28:47.601Z,3.80
2018-09-25T20:31:23.683Z,4.67
2018-09-25T20:33:58.005Z,5.63
2018-09-25T20:36:33.657Z,5.10
2018-09-25T20:39:08.585Z,4.70
2018-09-25T20:41:43.674Z,4.37
2018-09-25T20:44:18.766Z,5.73
2018-09-25T20:46:55.397Z,6.10
2018-09-25T20:49:34.429Z,5.47
2018-09-25T20:52:09.017Z,7.83
2018-09-25T20:54:43.185Z,6.97
2018-09-25T20:57:18.413Z,7.70
2018-09-25T20:59:55.742Z,6.50
2018-09-25T21:02:30.422Z,6.20
2018-09-25T21:05:04.788Z,5.80
2018-09-25T21:07:42.231Z,6.90
2018-09-25T21:10:18.613Z,6.70
2018-09-25T21:12:53.515Z,5.23
2018-09-25T21:15:29.646Z,5.90
2018-09-25T21:18:05.042Z,5.33
2018-09-25T21:20:41.579Z,4.60
2018-09-25T21:23:17.258Z,3.53
2018-09-25T21:25:55.705Z,3.50
2018-09-25T21:28:33.928Z,3.37
2018-09-25T21:31:09.317Z,3.90
2018-09-25T21:33:43.736Z,3.47
2018-09-25T21:36:17.970Z,3.60
2018-09-25T21:38:54.429Z,3.50
2018-09-25T21:41:28.610Z,3.60
2018-09-25T21:44:02.907Z,4.63
2018-09-25T21:46:37.255Z,5.03
2018-09-25T21:49:11.853Z,4.50
2018-09-25T21:51:46.284Z,5.17
2018-09-25T21:54:21.379Z,4.90
2018-09-25T21:56:55.771Z,5.00
2018-09-25T21:59:31.997Z,4.93
2018-09-25T22:02:06.940Z,5.80
2018-09-25T22:04:42.086Z,7.10
2018-09-25T22:07:21.574Z,6.17
2018-09-25T22:09:56.213Z,5.20
2018-09-25T22:12:31.034Z,4.90
2018-09-25T22:15:05.370Z,5.03
2018-09-25T22:17:42.846Z,4.10
2018-09-25T22:20:17.487Z,3.30
2018-09-25T22:22:51.738Z,3.50
2018-09-25T22:25:27.128Z,3.20
2018-09-25T22:28:03.388Z,2.90
2018-09-25T22:30:38.165Z,3.73
2018-09-25T22:33:12.847Z,3.20
2018-09-25T22:35:47.197Z,2.87
2018-09-25T22:38:21.732Z,3.30
2018-09-25T22:40:56.683Z,2.60
2018-09-25T22:43:31.012Z,2.93
2018-09-25T22:46:06.300Z,3.27
2018-09-25T22:48:42.071Z,3.80
2018-09-25T22:51:16.364Z,3.67
2018-09-25T22:53:50.553Z,4.53
2018-09-25T22:56:25.099Z,4.30
2018-09-25T23:01:39.213Z,3.57
2018-09-25T23:04:13.637Z,3.60
2018-09-25T23:06:48.193Z,4.27
2018-09-25T23:09:22.474Z,3.47
2018-09-25T23:11:57.247Z,3.93
2018-09-25T23:14:31.788Z,3.83
2018-09-25T23:17:06.423Z,3.87
2018-09-25T23:19:41.487Z,3.60
2018-09-25T23:22:15.684Z,3.37
2018-09-25T23:24:50.108Z,3.30
2018-09-25T23:27:24.922Z,4.00
2018-09-25T23:29:59.203Z,3.53
2018-09-25T23:32:33.542Z,3.40
2018-09-25T23:35:08.184Z,3.83
2018-09-25T23:37:42.424Z,3.90
2018-09-25T23:40:16.447Z,3.80
2018-09-25T23:42:52.510Z,3.57
2018-09-25T23:45:28.904Z,3.17
2018-09-25T23:49:02.299Z,3.83
2018-09-25T23:51:40.339Z,3.10
2018-09-25T23:55:17.577Z,3.50
2018-09-25T23:58:06.453Z,3.50
